Time;durP1;ratioP1;P1;durP2;ratioP2;P2;SDS_P1;SDS_P2;PMS_P1;PMS_P2;Temp;Humidity;BMP_temperature;BMP_pressure;BME280_temperature;BME280_humidity;BME280_pressure;Samples;Min_cycle;Max_cycle;Signal;HPM_P1;HPM_P2
2021/01/17 00:00:07;;;;;;;44.05;25.50;;;0.50;99.90;;;;;;5026918;28;20061;-83
2021/01/17 00:02:33;;;;;;;40.40;23.13;;;0.50;99.90;;;;;;5015952;28;20103;-81
2021/01/17 00:04:59;;;;;;;38.83;23.60;;;0.50;99.90;;;;;;5030665;28;20033;-82
2021/01/17 00:07:28;;;;;;;47.22;26.27;;;0.50;99.90;;;;;;5029758;28;20038;-83
2021/01/17 00:09:54;;;;;;;44.28;25.25;;;0.60;99.90;;;;;;5029396;28;20025;-83
2021/01/17 00:12:19;;;;;;;42.42;25.25;;;0.50;99.90;;;;;;5029123;28;20104;-82
2021/01/17 00:14:45;;;;;;;43.03;24.70;;;0.50;99.90;;;;;;5029720;28;20053;-81
2021/01/17 00:17:10;;;;;;;42.00;24.80;;;0.60;99.90;;;;;;5029063;28;20045;-82
2021/01/17 00:19:36;;;;;;;41.17;25.17;;;0.60;99.90;;;;;;5029085;28;20052;-81
2021/01/17 00:22:03;;;;;;;47.63;26.85;;;0.50;99.90;;;;;;5010366;28;20789;-83
2021/01/17 00:24:28;;;;;;;46.90;26.88;;;0.60;99.90;;;;;;5021406;28;20520;-82
2021/01/17 00:26:54;;;;;;;50.30;28.05;;;0.60;99.90;;;;;;5018300;28;20040;-82
2021/01/17 00:29:19;;;;;;;44.35;25.73;;;0.50;99.90;;;;;;5016788;28;20454;-83
2021/01/17 00:31:45;;;;;;;48.25;26.52;;;0.60;99.90;;;;;;5025499;28;20108;-85
2021/01/17 00:34:11;;;;;;;43.85;26.10;;;0.60;99.90;;;;;;5013863;28;20613;-83
2021/01/17 00:36:38;;;;;;;44.85;27.13;;;0.60;99.90;;;;;;5030693;28;20086;-84
2021/01/17 00:39:07;;;;;;;46.75;26.52;;;0.60;99.90;;;;;;5030604;28;20022;-83
2021/01/17 00:41:34;;;;;;;44.00;24.73;;;0.60;99.90;;;;;;5031921;28;20033;-83
2021/01/17 00:44:00;;;;;;;54.22;28.10;;;0.60;99.90;;;;;;5029870;28;20033;-83
2021/01/17 00:46:25;;;;;;;53.40;29.38;;;0.60;99.90;;;;;;5015069;28;20583;-84
2021/01/17 00:48:51;;;;;;;49.97;28.33;;;0.50;99.90;;;;;;5020469;28;20033;-82
2021/01/17 00:51:17;;;;;;;51.40;27.15;;;0.60;99.90;;;;;;5020529;28;20056;-83
2021/01/17 00:53:43;;;;;;;48.97;28.52;;;0.60;99.90;;;;;;5032708;28;20060;-84
2021/01/17 00:56:08;;;;;;;53.03;28.52;;;0.60;99.90;;;;;;5012326;28;20045;-83
2021/01/17 00:58:34;;;;;;;60.25;33.53;;;0.50;99.90;;;;;;5035495;28;20032;-84
2021/01/17 01:00:59;;;;;;;57.75;31.33;;;0.50;99.90;;;;;;5031393;28;20395;-84
2021/01/17 01:03:25;;;;;;;58.88;30.88;;;0.50;99.90;;;;;;5049534;28;20120;-83
2021/01/17 01:05:51;;;;;;;49.60;27.25;;;0.50;99.90;;;;;;5049450;28;20388;-85
2021/01/17 01:08:17;;;;;;;50.22;27.92;;;0.60;99.90;;;;;;5031458;28;20045;-83
2021/01/17 01:10:42;;;;;;;64.05;33.92;;;0.50;99.90;;;;;;5031447;28;20098;-83
2021/01/17 01:13:08;;;;;;;55.67;29.42;;;0.60;99.90;;;;;;5049372;28;20029;-83
2021/01/17 01:15:34;;;;;;;52.13;28.67;;;0.50;99.90;;;;;;5043665;28;20034;-83
2021/01/17 01:17:59;;;;;;;59.45;29.48;;;0.60;99.90;;;;;;5012152;28;20092;-84
2021/01/17 01:20:25;;;;;;;58.17;29.88;;;0.60;99.90;;;;;;5014512;28;20037;-83
2021/01/17 01:22:51;;;;;;;54.83;28.52;;;0.60;99.90;;;;;;5030071;28;20083;-84
2021/01/17 01:25:17;;;;;;;55.42;28.88;;;0.60;99.90;;;;;;5024078;28;20406;-85
2021/01/17 01:27:48;;;;;;;48.97;26.45;;;0.60;99.90;;;;;;5031766;28;20047;-84
2021/01/17 01:30:14;;;;;;;49.53;26.33;;;0.60;99.90;;;;;;5014997;28;20051;-85
2021/01/17 01:32:41;;;;;;;53.10;28.73;;;0.60;99.90;;;;;;5022055;28;20490;-85
2021/01/17 01:35:07;;;;;;;51.42;26.38;;;0.60;99.90;;;;;;5053086;28;20033;-84
2021/01/17 01:37:36;;;;;;;49.70;27.90;;;0.60;99.90;;;;;;5034877;28;20040;-83
2021/01/17 01:40:04;;;;;;;51.80;25.88;;;0.60;99.90;;;;;;5052939;28;20040;-83
2021/01/17 01:42:30;;;;;;;52.95;27.33;;;0.60;99.90;;;;;;5035153;28;20026;-83
2021/01/17 01:44:55;;;;;;;48.22;25.67;;;0.60;99.90;;;;;;5035076;28;20052;-83
2021/01/17 01:47:28;;;;;;;49.90;27.27;;;0.60;99.90;;;;;;5052812;28;20380;-83
2021/01/17 01:49:55;;;;;;;49.38;26.35;;;0.60;99.90;;;;;;5052908;28;20576;-83
2021/01/17 01:52:21;;;;;;;50.80;26.73;;;0.60;99.90;;;;;;5053212;28;20124;-83
2021/01/17 01:54:47;;;;;;;51.95;27.83;;;0.60;99.90;;;;;;5035095;28;20151;-84
2021/01/17 01:57:14;;;;;;;55.55;28.85;;;0.60;99.90;;;;;;5053058;28;20147;-82
2021/01/17 01:59:39;;;;;;;55.25;29.95;;;0.60;99.90;;;;;;5052358;28;20495;-84
2021/01/17 02:02:09;;;;;;;52.35;27.83;;;0.70;99.90;;;;;;5034724;28;20033;-84
2021/01/17 02:04:36;;;;;;;56.75;28.55;;;0.60;99.90;;;;;;5032581;28;20036;-82
2021/01/17 02:07:33;;;;;;;56.80;28.98;;;0.60;99.90;;;;;;5026365;28;20051;-82
2021/01/17 02:09:59;;;;;;;64.80;31.25;;;0.60;99.90;;;;;;5049334;28;20041;-83
2021/01/17 02:12:31;;;;;;;56.85;28.50;;;0.60;99.90;;;;;;5048988;28;20402;-81
2021/01/17 02:15:05;;;;;;;58.72;28.42;;;0.60;99.90;;;;;;5030226;28;20103;-82
2021/01/17 02:17:32;;;;;;;;;;;0.60;99.90;;;;;;5034336;28;20468;-82
2021/01/17 02:20:08;;;;;;;58.35;28.05;;;0.60;99.90;;;;;;5051419;28;19908;-83
2021/01/17 02:22:51;;;;;;;49.67;24.33;;;0.60;99.90;;;;;;5032859;28;20107;-82
2021/01/17 02:25:18;;;;;;;61.65;29.20;;;0.60;99.90;;;;;;5033321;28;20041;-83
2021/01/17 02:27:47;;;;;;;47.42;24.35;;;0.60;99.90;;;;;;5032629;28;20160;-84
2021/01/17 02:30:15;;;;;;;57.88;28.40;;;0.60;99.90;;;;;;5050568;28;20119;-82
2021/01/17 02:32:50;;;;;;;52.80;27.50;;;0.60;99.90;;;;;;5053221;28;20029;-83
2021/01/17 02:35:17;;;;;;;59.65;28.48;;;0.60;99.90;;;;;;5053209;28;20029;-81
2021/01/17 02:38:10;;;;;;;56.42;28.17;;;0.60;99.90;;;;;;5037536;28;20028;-80
2021/01/17 02:41:00;;;;;;;57.25;27.25;;;0.60;99.90;;;;;;5070232;28;20077;-81
2021/01/17 02:43:27;;;;;;;60.40;29.52;;;0.60;99.90;;;;;;5057933;28;20025;-81
2021/01/17 02:45:53;;;;;;;61.97;30.63;;;0.50;99.90;;;;;;5077736;28;20044;-80
2021/01/17 02:48:19;;;;;;;56.65;28.60;;;0.60;99.90;;;;;;5040981;28;20032;-82
2021/01/17 02:50:44;;;;;;;60.90;28.92;;;0.60;99.90;;;;;;5036021;28;20046;-83
2021/01/17 02:53:17;;;;;;;66.75;32.63;;;0.60;99.90;;;;;;5035487;28;20052;-84
2021/01/17 02:55:43;;;;;;;66.30;31.60;;;0.60;99.90;;;;;;5033778;28;20038;-83
2021/01/17 02:58:10;;;;;;;64.45;30.63;;;0.60;99.90;;;;;;5032674;28;20035;-83
2021/01/17 03:00:39;;;;;;;57.83;28.15;;;0.50;99.90;;;;;;5032602;28;20479;-83
2021/01/17 03:03:07;;;;;;;59.85;29.33;;;0.60;99.90;;;;;;5034890;28;20037;-81
2021/01/17 03:05:34;;;;;;;55.40;26.90;;;0.60;99.90;;;;;;5032856;28;20036;-84
2021/01/17 03:08:04;;;;;;;54.67;28.05;;;0.60;99.90;;;;;;5034051;28;20025;-82
2021/01/17 03:10:30;;;;;;;52.53;25.38;;;0.60;99.90;;;;;;5034064;28;20514;-83
2021/01/17 03:12:58;;;;;;;50.20;25.13;;;0.60;99.90;;;;;;5033894;28;20030;-83
2021/01/17 03:15:25;;;;;;;59.03;28.67;;;0.60;99.90;;;;;;5034176;28;20028;-84
2021/01/17 03:17:51;;;;;;;52.08;24.38;;;0.60;99.90;;;;;;5033929;28;20400;-84
2021/01/17 03:20:16;;;;;;;51.90;26.23;;;0.70;99.90;;;;;;5034373;28;20116;-83
2021/01/17 03:22:42;;;;;;;48.67;24.25;;;0.60;99.90;;;;;;5035190;28;20392;-84
2021/01/17 03:25:09;;;;;;;47.72;23.73;;;0.70;99.90;;;;;;5035307;28;20064;-84
2021/01/17 03:27:35;;;;;;;44.75;22.80;;;0.70;99.90;;;;;;5035758;28;20484;-85
2021/01/17 03:30:00;;;;;;;47.33;24.40;;;0.70;99.90;;;;;;5036498;28;20065;-83
2021/01/17 03:32:26;;;;;;;48.35;24.30;;;0.70;99.90;;;;;;5041792;28;20069;-82
2021/01/17 03:34:52;;;;;;;63.97;29.35;;;0.70;99.90;;;;;;5046606;28;20061;-83
2021/01/17 03:37:18;;;;;;;65.57;31.30;;;0.70;99.90;;;;;;5046319;28;20559;-86
2021/01/17 03:39:44;;;;;;;54.17;28.63;;;0.70;99.90;;;;;;5047455;28;20055;-84
2021/01/17 03:42:11;;;;;;;53.22;26.75;;;0.70;99.90;;;;;;5041573;28;20486;-83
2021/01/17 03:44:38;;;;;;;51.63;25.52;;;0.60;99.90;;;;;;5035575;28;20514;-83
2021/01/17 03:47:06;;;;;;;59.20;27.25;;;0.60;99.90;;;;;;5034084;28;20029;-84
2021/01/17 03:49:32;;;;;;;46.78;24.23;;;0.60;99.90;;;;;;5033691;28;20399;-84
2021/01/17 03:51:57;;;;;;;48.45;24.27;;;0.70;99.90;;;;;;5033610;28;20128;-85
2021/01/17 03:54:23;;;;;;;45.72;22.85;;;0.70;99.90;;;;;;5033352;28;20045;-83
2021/01/17 03:56:49;;;;;;;49.40;22.50;;;0.70;99.90;;;;;;5033279;28;20034;-83
2021/01/17 03:59:18;;;;;;;46.72;23.88;;;0.70;99.90;;;;;;5034233;28;20372;-83
2021/01/17 04:01:44;;;;;;;41.05;21.35;;;0.70;99.90;;;;;;5032839;28;20068;-84
2021/01/17 04:04:10;;;;;;;40.67;22.33;;;0.70;99.90;;;;;;5034033;28;20056;-83
2021/01/17 04:06:36;;;;;;;38.22;20.42;;;0.70;99.90;;;;;;5034451;28;20052;-84
2021/01/17 04:09:04;;;;;;;44.42;21.35;;;0.70;99.90;;;;;;5034451;28;20039;-84
2021/01/17 04:11:29;;;;;;;42.33;20.42;;;0.70;99.90;;;;;;5033185;28;20041;-84
2021/01/17 04:13:56;;;;;;;40.78;20.60;;;0.70;99.90;;;;;;5032866;28;20033;-84
2021/01/17 04:16:22;;;;;;;44.75;22.08;;;0.70;99.90;;;;;;5032728;28;20033;-84
2021/01/17 04:18:48;;;;;;;40.15;21.35;;;0.80;99.90;;;;;;5034235;28;20076;-84
2021/01/17 04:21:13;;;;;;;39.90;20.05;;;0.80;99.90;;;;;;5034056;28;20083;-84
2021/01/17 04:23:39;;;;;;;46.42;22.20;;;0.80;99.90;;;;;;5034098;28;20388;-83
2021/01/17 04:26:05;;;;;;;46.85;23.45;;;0.80;99.90;;;;;;5032797;28;20418;-84
2021/01/17 04:28:30;;;;;;;40.45;22.23;;;0.80;99.90;;;;;;5032539;28;20497;-84
2021/01/17 04:30:56;;;;;;;43.00;21.83;;;0.80;99.90;;;;;;5032277;28;20081;-83
2021/01/17 04:33:22;;;;;;;39.20;21.85;;;0.80;99.90;;;;;;5032441;28;20022;-84
2021/01/17 04:35:48;;;;;;;43.55;20.20;;;0.70;99.90;;;;;;5032447;28;20526;-84
2021/01/17 04:38:13;;;;;;;40.05;20.15;;;0.80;99.90;;;;;;5031436;28;20065;-83
2021/01/17 04:40:39;;;;;;;35.95;18.73;;;0.80;99.90;;;;;;5032052;28;20103;-83
2021/01/17 04:43:23;;;;;;;39.05;19.50;;;0.80;99.90;;;;;;5032022;28;20045;-83
2021/01/17 04:45:52;;;;;;;37.05;20.83;;;0.80;99.90;;;;;;5032170;28;20045;-82
2021/01/17 04:48:17;;;;;;;37.72;18.83;;;0.80;99.90;;;;;;5031983;28;20036;-83
2021/01/17 04:50:46;;;;;;;39.30;22.05;;;0.80;99.90;;;;;;5033119;28;20041;-83
2021/01/17 04:53:13;;;;;;;40.45;21.10;;;0.80;99.90;;;;;;5032038;28;20498;-83
2021/01/17 04:55:39;;;;;;;48.42;24.42;;;0.80;99.90;;;;;;5035120;28;20068;-84
2021/01/17 04:58:19;;;;;;;40.95;21.52;;;0.80;99.90;;;;;;5035566;28;20029;-84
2021/01/17 05:00:58;;;;;;;38.75;20.27;;;0.80;99.90;;;;;;5035424;28;20502;-84
2021/01/17 05:03:51;;;;;;;34.13;18.90;;;0.80;99.90;;;;;;5053193;28;20108;-84
2021/01/17 05:06:29;;;;;;;37.17;18.63;;;0.80;99.90;;;;;;5053228;28;20029;-84
2021/01/17 05:09:01;;;;;;;33.63;17.98;;;0.80;99.90;;;;;;5035452;28;20032;-84
2021/01/17 05:11:35;;;;;;;36.75;18.88;;;0.90;99.90;;;;;;5053339;28;20068;-84
2021/01/17 05:14:15;;;;;;;37.80;19.30;;;0.90;99.90;;;;;;5035186;28;20120;-83
2021/01/17 05:16:43;;;;;;;37.13;20.27;;;0.90;99.90;;;;;;5053390;28;20044;-84
2021/01/17 05:19:16;;;;;;;34.00;18.15;;;0.90;99.90;;;;;;5035106;28;20052;-84
2021/01/17 05:22:03;;;;;;;;;;;0.90;99.90;;;;;;5053510;28;20033;-83
2021/01/17 05:24:30;;;;;;;34.35;17.90;;;0.90;99.90;;;;;;5030660;28;19924;-84
2021/01/17 05:26:59;;;;;;;40.95;20.95;;;0.90;99.90;;;;;;5035074;28;20032;-84
2021/01/17 05:29:26;;;;;;;36.15;19.38;;;0.90;99.90;;;;;;5034550;28;20116;-85
2021/01/17 05:32:00;;;;;;;36.72;19.25;;;0.90;99.90;;;;;;5052662;28;20041;-85
2021/01/17 05:34:27;;;;;;;31.98;17.15;;;0.90;99.90;;;;;;5052817;28;20116;-84
2021/01/17 05:37:03;;;;;;;33.13;16.67;;;0.80;99.90;;;;;;5034852;28;20040;-84
2021/01/17 05:39:29;;;;;;;39.28;20.27;;;0.80;99.90;;;;;;5052742;28;20483;-85
2021/01/17 05:42:05;;;;;;;32.65;17.85;;;0.90;99.90;;;;;;5035101;28;20649;-85
2021/01/17 05:44:31;;;;;;;36.22;18.35;;;0.90;99.90;;;;;;5052721;28;20434;-85
2021/01/17 05:47:06;;;;;;;30.67;17.02;;;0.90;99.90;;;;;;5034827;28;20033;-85
2021/01/17 05:49:32;;;;;;;31.45;17.05;;;0.90;99.90;;;;;;5054099;28;20036;-85
2021/01/17 05:52:12;;;;;;;31.42;16.45;;;0.90;99.90;;;;;;5056301;28;20051;-85
2021/01/17 05:54:40;;;;;;;25.77;14.30;;;0.90;99.90;;;;;;5056678;28;20398;-83
2021/01/17 05:57:25;;;;;;;30.63;14.98;;;0.90;99.90;;;;;;5056491;28;20043;-85
2021/01/17 05:59:51;;;;;;;27.90;15.18;;;0.90;99.90;;;;;;5056722;28;20032;-84
2021/01/17 06:02:20;;;;;;;26.13;14.32;;;0.90;99.90;;;;;;5056329;28;20479;-85
2021/01/17 06:05:05;;;;;;;28.45;16.17;;;1.00;99.90;;;;;;5056397;28;20429;-85
2021/01/17 06:07:32;;;;;;;31.23;15.20;;;1.00;99.90;;;;;;5038006;28;20033;-87
2021/01/17 06:09:59;;;;;;;30.00;14.80;;;1.00;99.90;;;;;;5056458;28;20689;-85
2021/01/17 06:12:37;;;;;;;28.05;15.18;;;1.00;99.90;;;;;;5056803;28;20037;-85
2021/01/17 06:15:08;;;;;;;31.25;15.85;;;1.00;99.90;;;;;;5056420;28;20033;-86
2021/01/17 06:17:36;;;;;;;29.85;15.07;;;1.00;99.90;;;;;;5038788;28;20037;-86
2021/01/17 06:20:05;;;;;;;27.90;15.18;;;1.00;99.90;;;;;;5039225;28;20036;-86
2021/01/17 06:22:32;;;;;;;28.30;14.95;;;1.00;99.90;;;;;;5057031;28;20037;-87
2021/01/17 06:25:02;;;;;;;30.65;16.50;;;1.00;99.90;;;;;;5057045;28;20365;-86
2021/01/17 06:27:29;;;;;;;30.55;16.60;;;1.10;99.90;;;;;;5056653;28;20087;-86
2021/01/17 06:29:56;;;;;;;26.90;14.73;;;1.00;99.90;;;;;;5039391;28;20124;-85
2021/01/17 06:32:24;;;;;;;27.50;14.40;;;1.00;99.90;;;;;;5037887;28;20041;-86
2021/01/17 06:34:52;;;;;;;22.70;12.82;;;1.10;99.90;;;;;;5038086;28;20033;-84
2021/01/17 06:37:19;;;;;;;26.20;13.30;;;1.10;99.90;;;;;;5038129;28;20103;-85
2021/01/17 06:39:50;;;;;;;27.77;13.43;;;1.10;99.90;;;;;;5056110;28;20029;-86
2021/01/17 06:42:18;;;;;;;24.55;13.40;;;1.10;99.90;;;;;;5038002;28;20044;-84
2021/01/17 06:44:45;;;;;;;22.85;12.70;;;1.10;99.90;;;;;;5038203;28;20036;-85
2021/01/17 06:47:29;;;;;;;32.22;16.13;;;1.10;99.90;;;;;;5038398;28;20569;-85
2021/01/17 06:49:55;;;;;;;28.23;14.73;;;1.10;99.90;;;;;;5034944;28;20442;-86
2021/01/17 06:52:22;;;;;;;27.58;15.27;;;1.10;99.90;;;;;;5055799;28;20037;-85
2021/01/17 06:54:53;;;;;;;26.13;14.75;;;1.10;99.90;;;;;;5037639;28;20053;-85
2021/01/17 06:57:20;;;;;;;33.13;16.85;;;1.10;99.90;;;;;;5038179;28;20177;-84
2021/01/17 06:59:45;;;;;;;30.35;15.30;;;1.10;99.90;;;;;;5055018;28;20104;-84
2021/01/17 07:02:16;;;;;;;32.55;16.15;;;1.10;99.90;;;;;;5037799;28;20060;-84
2021/01/17 07:05:18;;;;;;;32.25;16.63;;;1.10;99.90;;;;;;5055697;28;20084;-85
2021/01/17 07:08:03;;;;;;;30.90;16.10;;;1.10;99.90;;;;;;5054198;28;20094;-84
2021/01/17 07:10:40;;;;;;;30.40;14.60;;;1.10;99.90;;;;;;5055699;28;20048;-85
2021/01/17 07:13:08;;;;;;;31.58;16.67;;;1.10;99.90;;;;;;5055376;28;20037;-86
2021/01/17 07:15:36;;;;;;;28.00;14.77;;;1.10;99.90;;;;;;5037369;28;20506;-85
2021/01/17 07:18:03;;;;;;;27.25;14.05;;;1.20;99.90;;;;;;5055080;28;20082;-84
2021/01/17 07:20:33;;;;;;;24.52;12.68;;;1.20;99.90;;;;;;5037399;28;20086;-86
2021/01/17 07:23:00;;;;;;;26.23;13.20;;;1.20;99.90;;;;;;5055021;28;20426;-84
2021/01/17 07:25:30;;;;;;;30.70;15.43;;;1.20;99.90;;;;;;5036866;28;20029;-85
2021/01/17 07:28:15;;;;;;;34.50;17.05;;;1.20;99.90;;;;;;5037084;28;20429;-87
2021/01/17 07:30:56;;;;;;;29.83;13.73;;;1.20;99.90;;;;;;5036918;28;20040;-84
2021/01/17 07:33:30;;;;;;;31.23;14.95;;;1.20;99.90;;;;;;5054818;28;20119;-85
2021/01/17 07:36:01;;;;;;;33.75;14.73;;;1.20;99.90;;;;;;5036991;28;20033;-85
2021/01/17 07:38:29;;;;;;;32.70;15.90;;;1.20;99.90;;;;;;5054752;28;20032;-84
2021/01/17 07:41:01;;;;;;;30.33;14.52;;;1.20;99.90;;;;;;5054490;28;20029;-85
2021/01/17 07:43:30;;;;;;;33.50;14.05;;;1.30;99.90;;;;;;5054389;28;20041;-84
2021/01/17 07:46:08;;;;;;;34.25;16.60;;;1.20;99.90;;;;;;5054293;28;20028;-83
2021/01/17 07:48:33;;;;;;;32.78;15.88;;;1.30;99.90;;;;;;5054482;28;20482;-84
2021/01/17 07:51:02;;;;;;;33.25;16.13;;;1.20;99.90;;;;;;5036125;28;20127;-84
2021/01/17 07:53:37;;;;;;;36.67;16.50;;;1.30;99.90;;;;;;5054333;28;20554;-85
2021/01/17 07:56:09;;;;;;;38.78;16.58;;;1.30;99.90;;;;;;5036431;28;20553;-84
2021/01/17 07:58:43;;;;;;;35.08;17.08;;;1.30;99.90;;;;;;5054072;28;20037;-83
2021/01/17 08:01:30;;;;;;;40.47;17.05;;;1.30;99.90;;;;;;5036348;28;20103;-83
2021/01/17 08:04:19;;;;;;;31.63;15.35;;;1.30;99.90;;;;;;5054037;28;20044;-83
2021/01/17 08:06:49;;;;;;;40.45;17.42;;;1.30;99.90;;;;;;5022977;28;20035;-83
2021/01/17 08:09:16;;;;;;;36.08;16.20;;;1.30;99.90;;;;;;5036134;28;20056;-84
2021/01/17 08:11:45;;;;;;;30.90;15.05;;;1.30;99.90;;;;;;5035500;28;20411;-83
2021/01/17 08:14:39;;;;;;;35.65;16.30;;;1.30;99.90;;;;;;5053898;28;20033;-84
2021/01/17 08:17:08;;;;;;;37.22;15.80;;;1.40;99.90;;;;;;5040917;28;20032;-82
2021/01/17 08:20:00;;;;;;;36.22;16.08;;;1.40;99.90;;;;;;5074342;28;20033;-80
2021/01/17 08:22:25;;;;;;;41.38;15.40;;;1.40;99.90;;;;;;5073478;28;20055;-80
2021/01/17 08:24:54;;;;;;;30.48;15.25;;;1.40;99.90;;;;;;5064229;28;20120;-85
2021/01/17 08:30:00;;;;;;;38.22;17.27;;;1.50;99.90;;;;;;5055989;28;20029;-84
2021/01/17 08:32:41;;;;;;;41.75;19.00;;;1.50;99.90;;;;;;5053642;28;20052;-83
2021/01/17 08:35:23;;;;;;;38.72;17.00;;;1.50;99.90;;;;;;5036057;28;20394;-84
2021/01/17 08:37:51;;;;;;;40.97;18.15;;;1.50;99.90;;;;;;5035696;28;20557;-84
2021/01/17 08:40:38;;;;;;;42.83;19.23;;;1.50;99.90;;;;;;5053392;28;20037;-84
2021/01/17 08:43:09;;;;;;;42.17;18.67;;;1.50;99.90;;;;;;5018755;28;20033;-85
2021/01/17 08:45:46;;;;;;;42.17;18.42;;;1.60;99.90;;;;;;5019010;28;20483;-84
2021/01/17 08:48:15;;;;;;;48.10;18.75;;;1.70;99.90;;;;;;5035308;28;20037;-85
2021/01/17 08:50:41;;;;;;;38.42;16.60;;;1.60;99.90;;;;;;5035109;28;20045;-85
2021/01/17 08:53:26;;;;;;;42.63;17.63;;;1.70;99.90;;;;;;5053417;28;20092;-86
2021/01/17 08:55:52;;;;;;;44.78;17.58;;;1.70;99.90;;;;;;5035262;28;20047;-84
2021/01/17 08:58:27;;;;;;;42.53;16.77;;;1.80;99.90;;;;;;5053808;28;20041;-86
2021/01/17 09:00:52;;;;;;;38.13;15.50;;;1.80;99.90;;;;;;5034836;28;20043;-84
2021/01/17 09:03:29;;;;;;;42.78;16.38;;;1.80;99.90;;;;;;5035326;28;20498;-85
2021/01/17 09:06:21;;;;;;;45.17;16.65;;;1.80;99.90;;;;;;5035051;28;20123;-85
2021/01/17 09:08:53;;;;;;;42.83;15.57;;;1.80;99.90;;;;;;5038629;28;20060;-84
2021/01/17 09:11:25;;;;;;;50.28;15.52;;;1.90;99.90;;;;;;5053650;28;20080;-84
2021/01/17 09:14:17;;;;;;;35.67;15.07;;;2.00;99.90;;;;;;5052819;28;20033;-83
2021/01/17 09:17:01;;;;;;;38.15;16.98;;;2.00;99.90;;;;;;5035379;28;20029;-84
2021/01/17 09:19:29;;;;;;;44.72;16.23;;;2.10;99.90;;;;;;5052994;28;20509;-84
2021/01/17 09:21:57;;;;;;;45.03;16.20;;;2.10;99.90;;;;;;5052918;28;20383;-85
2021/01/17 09:24:30;;;;;;;37.17;15.93;;;2.20;99.90;;;;;;5037743;28;20048;-83
2021/01/17 09:26:57;;;;;;;38.03;15.65;;;2.20;99.90;;;;;;5039763;28;20036;-84
2021/01/17 09:29:34;;;;;;;47.05;18.58;;;2.30;99.90;;;;;;5039480;28;20029;-84
2021/01/17 09:32:09;;;;;;;41.22;17.27;;;2.30;99.90;;;;;;5039592;28;20048;-83
2021/01/17 09:34:42;;;;;;;42.63;19.00;;;2.30;99.90;;;;;;5057270;28;20021;-84
2021/01/17 09:37:17;;;;;;;48.28;20.02;;;2.40;99.90;;;;;;5039256;28;20069;-86
2021/01/17 09:39:50;;;;;;;43.85;19.30;;;2.50;99.90;;;;;;5039278;28;20029;-83
2021/01/17 09:42:18;;;;;;;48.22;19.77;;;2.50;99.90;;;;;;5040358;28;20629;-85
2021/01/17 09:44:53;;;;;;;49.63;18.90;;;2.60;99.90;;;;;;5057252;28;20044;-85
2021/01/17 09:47:21;;;;;;;46.90;20.05;;;2.70;99.90;;;;;;5053788;28;20036;-84
2021/01/17 09:49:47;;;;;;;50.92;21.10;;;2.70;99.90;;;;;;5034752;28;20029;-84
2021/01/17 09:52:15;;;;;;;45.97;18.38;;;2.70;99.90;;;;;;5053358;28;20075;-82
2021/01/17 09:54:41;;;;;;;50.42;21.75;;;2.80;99.90;;;;;;5033163;28;20069;-83
2021/01/17 09:57:20;;;;;;;54.35;21.95;;;2.80;99.90;;;;;;5033579;28;20037;-83
2021/01/17 09:59:48;;;;;;;47.70;21.35;;;2.80;99.90;;;;;;5037344;28;20120;-83
2021/01/17 10:02:17;;;;;;;51.72;22.33;;;2.80;99.90;;;;;;5038460;28;20025;-82
2021/01/17 10:04:44;;;;;;;57.47;23.05;;;2.70;99.90;;;;;;5038061;28;20038;-84
2021/01/17 10:07:15;;;;;;;51.90;23.23;;;2.70;99.90;;;;;;5034889;28;20095;-82
2021/01/17 10:09:41;;;;;;;49.05;23.25;;;2.70;99.90;;;;;;5049825;28;20345;-83
2021/01/17 10:12:07;;;;;;;50.58;22.33;;;2.70;99.90;;;;;;5055971;28;20037;-85
2021/01/17 10:14:35;;;;;;;49.20;22.08;;;2.70;99.90;;;;;;5041127;28;20029;-85
2021/01/17 10:17:04;;;;;;;45.30;21.85;;;2.70;99.90;;;;;;5033441;28;20133;-84
2021/01/17 10:19:31;;;;;;;44.53;20.95;;;2.80;99.90;;;;;;5028861;28;20442;-84
2021/01/17 10:21:59;;;;;;;40.22;19.17;;;2.80;99.90;;;;;;5033715;28;20128;-83
2021/01/17 10:24:30;;;;;;;42.08;20.83;;;3.00;99.90;;;;;;5034565;28;20142;-83
2021/01/17 10:27:02;;;;;;;42.33;19.73;;;3.00;99.90;;;;;;5035865;28;20076;-87
2021/01/17 10:29:36;;;;;;;46.65;21.60;;;3.20;99.90;;;;;;5035062;28;20037;-85
2021/01/17 10:32:08;;;;;;;47.60;20.75;;;3.50;99.90;;;;;;5034174;28;20044;-85
2021/01/17 10:34:41;;;;;;;47.10;21.55;;;3.70;99.90;;;;;;5018151;28;20034;-86
2021/01/17 10:37:09;;;;;;;45.30;20.63;;;3.80;99.90;;;;;;5035364;28;20151;-85
2021/01/17 10:39:37;;;;;;;53.15;22.25;;;3.90;99.90;;;;;;5034849;28;20407;-86
2021/01/17 10:42:05;;;;;;;49.00;20.98;;;4.00;99.90;;;;;;5034986;28;20069;-85
2021/01/17 10:44:40;;;;;;;44.35;21.08;;;4.10;99.90;;;;;;5028833;28;20139;-84
2021/01/17 10:47:13;;;;;;;48.17;24.08;;;4.10;99.90;;;;;;5034034;28;20043;-85
2021/01/17 10:49:43;;;;;;;47.05;22.50;;;4.20;99.90;;;;;;5033852;28;20044;-84
2021/01/17 10:52:31;;;;;;;48.03;22.95;;;4.30;99.90;;;;;;5033984;28;20069;-85
2021/01/17 10:54:59;;;;;;;48.97;25.98;;;4.40;99.90;;;;;;5044009;28;20198;-85
2021/01/17 10:57:25;;;;;;;53.50;24.50;;;4.40;99.90;;;;;;5039441;28;20029;-85
2021/01/17 10:59:55;;;;;;;52.92;25.00;;;4.40;99.90;;;;;;5040064;28;20405;-84
2021/01/17 11:02:23;;;;;;;53.00;24.52;;;4.30;99.90;;;;;;5040115;28;20040;-86
2021/01/17 11:04:49;;;;;;;40.67;22.35;;;4.40;99.90;;;;;;5041189;28;20036;-84
2021/01/17 11:07:17;;;;;;;52.17;25.63;;;4.40;99.90;;;;;;5041952;28;20029;-88
2021/01/17 11:09:43;;;;;;;51.28;24.50;;;4.40;99.90;;;;;;5042408;28;20040;-85
2021/01/17 11:12:08;;;;;;;62.13;27.80;;;4.40;99.90;;;;;;5041425;28;20041;-87
2021/01/17 11:14:34;;;;;;;52.45;24.35;;;4.30;99.90;;;;;;5056764;28;20475;-88
2021/01/17 11:17:01;;;;;;;51.05;25.42;;;4.30;99.90;;;;;;5037003;28;20049;-90
2021/01/17 11:19:40;;;;;;;53.20;24.15;;;4.20;99.90;;;;;;5053308;28;20491;-87
2021/01/17 11:22:07;;;;;;;47.78;23.42;;;4.20;99.90;;;;;;5034885;28;20032;-86
2021/01/17 11:24:41;;;;;;;52.55;24.00;;;4.20;99.90;;;;;;5051877;28;20390;-88
2021/01/17 11:27:06;;;;;;;48.38;24.70;;;4.60;99.90;;;;;;5051848;28;20052;-87
2021/01/17 11:29:32;;;;;;;38.13;22.50;;;5.60;99.90;;;;;;5052292;28;20033;-86
2021/01/17 11:31:58;;;;;;;41.58;21.38;;;6.80;99.90;;;;;;5034028;28;20048;-87
2021/01/17 11:34:24;;;;;;;35.92;18.75;;;7.90;99.90;;;;;;5034055;28;20034;-89
2021/01/17 11:37:02;;;;;;;34.97;18.05;;;8.40;99.90;;;;;;5037115;28;20033;-91
2021/01/17 11:39:29;;;;;;;33.55;17.17;;;8.50;99.90;;;;;;5054313;28;20045;-87
2021/01/17 11:41:55;;;;;;;31.80;15.13;;;8.10;99.90;;;;;;5034166;28;20124;-85
2021/01/17 11:44:26;;;;;;;32.58;14.60;;;7.80;99.90;;;;;;5033830;28;20091;-85
2021/01/17 11:46:52;;;;;;;29.10;13.23;;;7.60;99.90;;;;;;5028237;28;20099;-87
2021/01/17 11:49:24;;;;;;;30.83;13.23;;;7.50;99.90;;;;;;5052010;28;20033;-85
2021/01/17 11:51:50;;;;;;;23.67;11.70;;;7.50;99.90;;;;;;5034537;28;20048;-85
2021/01/17 11:54:22;;;;;;;28.90;11.13;;;7.50;99.90;;;;;;5035062;28;20052;-84
2021/01/17 11:57:01;;;;;;;26.65;10.45;;;7.50;99.90;;;;;;5035736;28;20068;-86
2021/01/17 11:59:31;;;;;;;22.92;9.70;;;7.50;99.90;;;;;;5033567;28;20414;-84
2021/01/17 12:01:56;;;;;;;21.30;9.30;;;7.40;99.90;;;;;;5034301;28;20048;-85
2021/01/17 12:04:26;;;;;;;23.80;9.57;;;7.30;99.90;;;;;;5014948;28;20029;-85
2021/01/17 12:07:07;;;;;;;20.15;9.55;;;7.10;99.90;;;;;;5015555;28;20052;-84
2021/01/17 12:09:33;;;;;;;22.25;9.23;;;7.00;99.90;;;;;;5022893;28;20500;-83
2021/01/17 12:12:11;;;;;;;24.02;8.80;;;6.80;99.90;;;;;;5032594;28;20045;-85
2021/01/17 12:14:36;;;;;;;23.48;8.32;;;6.80;99.90;;;;;;5032456;28;20064;-83
2021/01/17 12:17:02;;;;;;;22.52;8.90;;;6.80;99.90;;;;;;5015318;28;20038;-84
2021/01/17 12:19:29;;;;;;;21.75;8.60;;;6.70;99.90;;;;;;5022980;28;20087;-86
2021/01/17 12:21:57;;;;;;;21.05;7.97;;;6.70;99.90;;;;;;5035176;28;20037;-85
2021/01/17 12:24:23;;;;;;;23.77;8.55;;;6.70;99.90;;;;;;5035510;28;20041;-86
2021/01/17 12:26:51;;;;;;;21.85;7.93;;;6.70;99.90;;;;;;5053228;28;20475;-84
2021/01/17 12:29:17;;;;;;;18.63;6.68;;;6.70;99.90;;;;;;5032862;28;20033;-87
2021/01/17 12:31:43;;;;;;;19.48;7.00;;;6.80;99.90;;;;;;5035334;28;20079;-89
2021/01/17 12:34:10;;;;;;;21.23;7.75;;;6.80;99.90;;;;;;5054009;28;20037;-87
2021/01/17 12:36:41;;;;;;;17.45;6.80;;;6.80;99.90;;;;;;5035757;28;20575;-87
2021/01/17 12:39:08;;;;;;;22.50;6.60;;;6.80;99.90;;;;;;5036770;28;20047;-89
2021/01/17 12:41:38;;;;;;;19.88;6.60;;;6.80;99.90;;;;;;5052948;28;20067;-89
2021/01/17 12:44:04;;;;;;;19.90;6.93;;;6.90;99.90;;;;;;5057743;28;20033;-90
2021/01/17 12:46:30;;;;;;;24.25;7.78;;;6.90;99.90;;;;;;5058377;28;20045;-88
2021/01/17 12:48:56;;;;;;;22.25;7.28;;;6.90;99.90;;;;;;5049187;28;20093;-85
2021/01/17 12:51:22;;;;;;;21.08;6.10;;;6.80;99.90;;;;;;5045314;28;20037;-86
2021/01/17 12:53:49;;;;;;;21.52;5.90;;;6.80;99.90;;;;;;5044881;28;20053;-89